ZSSS/SHA METAR and TAF weather

Enter ICAO airport designator
Station Type Date Time Source
ZSSS METAR 2021/09/23 18:30 UTC NOAA

ZSSS 231830Z 12004MPS CAVOK 25/22 Q1018 NOSIG


Station Type Date Time Source
ZSSS Decoded METAR 2021/09/23 18:30 UTC NOAA

Shanghai / Hongqiao, China (ZSSS) 31-10N 121-26E 3M
Sep 23, 2021 - 02:30 PM EDT / 2021.09.23 1830 UTC
Wind: from the ESE (120 degrees) at 9 MPH (8 KT):0
Visibility: greater than 7 mile(s):0
Temperature: 77 F (25 C)
Dew Point: 71 F (22 C)
Relative Humidity: 83%
Pressure (altimeter): 30.06 in. Hg (1018 hPa)
ob: ZSSS 231830Z 12004MPS CAVOK 25/22 Q1018 NOSIG
cycle: 18

Station Type Date Time Source
ZSSS TAF 2021/09/23 18:03 UTC NOAA

TAF ZSSS 231502Z 2318/2418 12004MPS 6000 SCT020 TX32/2406Z TN24/2321Z

Example: see airport list